sensor_id;sensor_type;location;lat;lon;timestamp;P1;durP1;ratioP1;P2;durP2;ratioP2
57577;SDS011;43413;-33.790;150.826;2022-09-09T00:00:40;6.20;;;2.63;;
57577;SDS011;43413;-33.790;150.826;2022-09-09T00:03:26;7.93;;;2.53;;
57577;SDS011;43413;-33.790;150.826;2022-09-09T00:08:38;5.65;;;2.75;;
57577;SDS011;43413;-33.790;150.826;2022-09-09T00:11:08;7.38;;;2.72;;
57577;SDS011;43413;-33.790;150.826;2022-09-09T00:13:46;7.18;;;2.72;;
57577;SDS011;43413;-33.790;150.826;2022-09-09T00:16:16;4.35;;;2.05;;
57577;SDS011;43413;-33.790;150.826;2022-09-09T00:21:16;4.75;;;2.05;;
57577;SDS011;43413;-33.790;150.826;2022-09-09T00:24:23;3.55;;;1.80;;
57577;SDS011;43413;-33.790;150.826;2022-09-09T00:26:47;5.38;;;1.80;;
57577;SDS011;43413;-33.790;150.826;2022-09-09T00:29:27;3.75;;;1.80;;
57577;SDS011;43413;-33.790;150.826;2022-09-09T00:32:00;5.43;;;1.80;;
57577;SDS011;43413;-33.790;150.826;2022-09-09T00:34:31;5.07;;;1.88;;
57577;SDS011;43413;-33.790;150.826;2022-09-09T00:36:59;3.83;;;2.20;;
57577;SDS011;43413;-33.790;150.826;2022-09-09T00:39:34;4.97;;;1.75;;
57577;SDS011;43413;-33.790;150.826;2022-09-09T00:42:16;4.93;;;2.08;;
57577;SDS011;43413;-33.790;150.826;2022-09-09T00:45:10;3.83;;;1.50;;
57577;SDS011;43413;-33.790;150.826;2022-09-09T00:47:46;3.47;;;1.58;;
57577;SDS011;43413;-33.790;150.826;2022-09-09T00:55:21;5.13;;;1.85;;
57577;SDS011;43413;-33.790;150.826;2022-09-09T00:57:52;3.53;;;1.67;;
57577;SDS011;43413;-33.790;150.826;2022-09-09T01:08:29;2.17;;;0.90;;
57577;SDS011;43413;-33.790;150.826;2022-09-09T01:10:58;3.58;;;1.20;;
57577;SDS011;43413;-33.790;150.826;2022-09-09T01:13:28;3.47;;;1.05;;
57577;SDS011;43413;-33.790;150.826;2022-09-09T01:15:57;3.08;;;0.98;;
57577;SDS011;43413;-33.790;150.826;2022-09-09T01:18:58;2.25;;;1.20;;
57577;SDS011;43413;-33.790;150.826;2022-09-09T01:26:50;5.55;;;1.33;;
57577;SDS011;43413;-33.790;150.826;2022-09-09T01:29:19;3.72;;;1.33;;
57577;SDS011;43413;-33.790;150.826;2022-09-09T01:31:53;2.88;;;1.00;;
57577;SDS011;43413;-33.790;150.826;2022-09-09T01:34:20;1.92;;;1.20;;
57577;SDS011;43413;-33.790;150.826;2022-09-09T01:39:16;1.95;;;1.05;;
57577;SDS011;43413;-33.790;150.826;2022-09-09T01:41:43;1.60;;;1.00;;
57577;SDS011;43413;-33.790;150.826;2022-09-09T01:44:10;1.92;;;0.98;;
57577;SDS011;43413;-33.790;150.826;2022-09-09T01:46:38;1.23;;;0.68;;
57577;SDS011;43413;-33.790;150.826;2022-09-09T01:49:06;2.72;;;1.00;;
57577;SDS011;43413;-33.790;150.826;2022-09-09T01:51:34;4.40;;;0.98;;
57577;SDS011;43413;-33.790;150.826;2022-09-09T01:54:02;0.98;;;0.65;;
57577;SDS011;43413;-33.790;150.826;2022-09-09T02:04:14;1.35;;;0.77;;
57577;SDS011;43413;-33.790;150.826;2022-09-09T02:06:45;1.60;;;0.70;;
57577;SDS011;43413;-33.790;150.826;2022-09-09T02:09:12;1.08;;;0.80;;
57577;SDS011;43413;-33.790;150.826;2022-09-09T02:11:40;1.52;;;0.70;;
57577;SDS011;43413;-33.790;150.826;2022-09-09T02:14:12;1.77;;;0.88;;
57577;SDS011;43413;-33.790;150.826;2022-09-09T02:16:42;3.17;;;0.70;;
57577;SDS011;43413;-33.790;150.826;2022-09-09T02:19:13;1.23;;;0.70;;
57577;SDS011;43413;-33.790;150.826;2022-09-09T02:21:43;2.70;;;0.80;;
57577;SDS011;43413;-33.790;150.826;2022-09-09T02:24:12;2.33;;;0.90;;
57577;SDS011;43413;-33.790;150.826;2022-09-09T02:26:41;3.08;;;0.80;;
57577;SDS011;43413;-33.790;150.826;2022-09-09T02:29:12;1.30;;;0.77;;
57577;SDS011;43413;-33.790;150.826;2022-09-09T02:31:41;3.15;;;0.80;;
57577;SDS011;43413;-33.790;150.826;2022-09-09T02:34:11;1.17;;;0.60;;
57577;SDS011;43413;-33.790;150.826;2022-09-09T02:36:40;2.05;;;0.68;;
57577;SDS011;43413;-33.790;150.826;2022-09-09T02:39:09;1.52;;;0.85;;
57577;SDS011;43413;-33.790;150.826;2022-09-09T02:41:38;1.90;;;0.65;;
57577;SDS011;43413;-33.790;150.826;2022-09-09T02:44:12;3.65;;;0.70;;
57577;SDS011;43413;-33.790;150.826;2022-09-09T02:49:28;2.22;;;0.70;;
57577;SDS011;43413;-33.790;150.826;2022-09-09T02:54:34;0.73;;;0.57;;
57577;SDS011;43413;-33.790;150.826;2022-09-09T02:59:29;1.13;;;0.50;;
57577;SDS011;43413;-33.790;150.826;2022-09-09T03:01:56;4.60;;;0.82;;
57577;SDS011;43413;-33.790;150.826;2022-09-09T03:04:23;1.58;;;0.70;;
57577;SDS011;43413;-33.790;150.826;2022-09-09T03:06:50;0.98;;;0.60;;
57577;SDS011;43413;-33.790;150.826;2022-09-09T03:09:18;1.40;;;0.40;;
57577;SDS011;43413;-33.790;150.826;2022-09-09T03:11:45;1.13;;;0.60;;
57577;SDS011;43413;-33.790;150.826;2022-09-09T03:14:12;1.65;;;0.50;;
57577;SDS011;43413;-33.790;150.826;2022-09-09T03:16:39;1.92;;;0.68;;
57577;SDS011;43413;-33.790;150.826;2022-09-09T03:19:08;1.50;;;0.52;;
57577;SDS011;43413;-33.790;150.826;2022-09-09T03:21:35;1.27;;;0.63;;
57577;SDS011;43413;-33.790;150.826;2022-09-09T03:24:03;1.15;;;0.57;;
57577;SDS011;43413;-33.790;150.826;2022-09-09T03:26:30;1.33;;;0.43;;
57577;SDS011;43413;-33.790;150.826;2022-09-09T03:28:57;1.30;;;0.50;;
57577;SDS011;43413;-33.790;150.826;2022-09-09T03:31:26;1.77;;;0.50;;
57577;SDS011;43413;-33.790;150.826;2022-09-09T03:33:56;0.93;;;0.55;;
57577;SDS011;43413;-33.790;150.826;2022-09-09T03:36:26;0.70;;;0.50;;
57577;SDS011;43413;-33.790;150.826;2022-09-09T03:38:54;1.30;;;0.60;;
57577;SDS011;43413;-33.790;150.826;2022-09-09T03:41:21;0.77;;;0.70;;
57577;SDS011;43413;-33.790;150.826;2022-09-09T03:43:52;2.03;;;0.70;;
57577;SDS011;43413;-33.790;150.826;2022-09-09T03:46:20;1.33;;;0.70;;
57577;SDS011;43413;-33.790;150.826;2022-09-09T03:48:47;1.52;;;0.60;;
57577;SDS011;43413;-33.790;150.826;2022-09-09T03:51:14;0.82;;;0.40;;
57577;SDS011;43413;-33.790;150.826;2022-09-09T03:53:42;1.27;;;0.47;;
57577;SDS011;43413;-33.790;150.826;2022-09-09T03:56:09;1.05;;;0.40;;
57577;SDS011;43413;-33.790;150.826;2022-09-09T03:58:36;0.55;;;0.40;;
57577;SDS011;43413;-33.790;150.826;2022-09-09T04:01:06;1.65;;;0.40;;
57577;SDS011;43413;-33.790;150.826;2022-09-09T04:03:38;0.38;;;0.30;;
57577;SDS011;43413;-33.790;150.826;2022-09-09T04:06:06;1.00;;;0.43;;
57577;SDS011;43413;-33.790;150.826;2022-09-09T04:08:34;0.80;;;0.30;;
57577;SDS011;43413;-33.790;150.826;2022-09-09T04:11:03;1.02;;;0.50;;
57577;SDS011;43413;-33.790;150.826;2022-09-09T04:13:32;1.13;;;0.50;;
57577;SDS011;43413;-33.790;150.826;2022-09-09T04:16:00;3.28;;;1.30;;
57577;SDS011;43413;-33.790;150.826;2022-09-09T04:18:27;0.77;;;0.50;;
57577;SDS011;43413;-33.790;150.826;2022-09-09T04:20:54;1.00;;;0.40;;
57577;SDS011;43413;-33.790;150.826;2022-09-09T04:23:26;0.60;;;0.25;;
57577;SDS011;43413;-33.790;150.826;2022-09-09T04:25:55;1.40;;;0.75;;
57577;SDS011;43413;-33.790;150.826;2022-09-09T04:28:23;0.30;;;0.30;;
57577;SDS011;43413;-33.790;150.826;2022-09-09T04:30:51;0.68;;;0.40;;
57577;SDS011;43413;-33.790;150.826;2022-09-09T04:33:18;1.15;;;0.38;;
57577;SDS011;43413;-33.790;150.826;2022-09-09T04:35:49;0.73;;;0.40;;
57577;SDS011;43413;-33.790;150.826;2022-09-09T04:38:19;0.68;;;0.40;;
57577;SDS011;43413;-33.790;150.826;2022-09-09T04:40:49;0.55;;;0.25;;
57577;SDS011;43413;-33.790;150.826;2022-09-09T04:43:17;0.75;;;0.30;;
57577;SDS011;43413;-33.790;150.826;2022-09-09T04:45:46;2.50;;;0.50;;
57577;SDS011;43413;-33.790;150.826;2022-09-09T04:48:14;1.30;;;0.43;;
57577;SDS011;43413;-33.790;150.826;2022-09-09T04:50:41;1.10;;;0.45;;
57577;SDS011;43413;-33.790;150.826;2022-09-09T04:53:08;0.38;;;0.38;;
57577;SDS011;43413;-33.790;150.826;2022-09-09T04:55:35;1.80;;;0.40;;
57577;SDS011;43413;-33.790;150.826;2022-09-09T04:58:04;3.00;;;0.50;;
57577;SDS011;43413;-33.790;150.826;2022-09-09T05:00:31;1.33;;;0.43;;
57577;SDS011;43413;-33.790;150.826;2022-09-09T05:03:01;0.60;;;0.32;;
57577;SDS011;43413;-33.790;150.826;2022-09-09T05:05:29;1.63;;;0.50;;
57577;SDS011;43413;-33.790;150.826;2022-09-09T05:08:03;0.57;;;0.50;;
57577;SDS011;43413;-33.790;150.826;2022-09-09T05:10:31;4.85;;;0.70;;
57577;SDS011;43413;-33.790;150.826;2022-09-09T05:13:01;1.48;;;0.40;;
57577;SDS011;43413;-33.790;150.826;2022-09-09T05:15:29;4.30;;;0.88;;
57577;SDS011;43413;-33.790;150.826;2022-09-09T06:05:21;1.42;;;0.70;;
57577;SDS011;43413;-33.790;150.826;2022-09-09T06:07:51;1.00;;;0.70;;
57577;SDS011;43413;-33.790;150.826;2022-09-09T06:10:19;1.80;;;0.70;;
57577;SDS011;43413;-33.790;150.826;2022-09-09T06:12:46;1.45;;;0.70;;
57577;SDS011;43413;-33.790;150.826;2022-09-09T06:15:13;1.00;;;0.70;;
57577;SDS011;43413;-33.790;150.826;2022-09-09T06:17:40;1.52;;;0.75;;
57577;SDS011;43413;-33.790;150.826;2022-09-09T06:20:08;1.48;;;0.70;;
57577;SDS011;43413;-33.790;150.826;2022-09-09T06:22:35;1.20;;;0.85;;
57577;SDS011;43413;-33.790;150.826;2022-09-09T06:25:03;0.98;;;0.68;;
57577;SDS011;43413;-33.790;150.826;2022-09-09T06:27:30;1.25;;;0.80;;
57577;SDS011;43413;-33.790;150.826;2022-09-09T06:29:57;1.67;;;0.75;;
57577;SDS011;43413;-33.790;150.826;2022-09-09T06:32:24;1.30;;;1.00;;
57577;SDS011;43413;-33.790;150.826;2022-09-09T06:34:52;1.40;;;0.95;;
57577;SDS011;43413;-33.790;150.826;2022-09-09T06:37:19;1.60;;;0.98;;
57577;SDS011;43413;-33.790;150.826;2022-09-09T06:39:49;1.38;;;1.00;;
57577;SDS011;43413;-33.790;150.826;2022-09-09T06:42:16;1.85;;;1.20;;
57577;SDS011;43413;-33.790;150.826;2022-09-09T06:44:44;1.73;;;1.17;;
57577;SDS011;43413;-33.790;150.826;2022-09-09T06:47:11;4.55;;;1.10;;
57577;SDS011;43413;-33.790;150.826;2022-09-09T06:49:39;3.60;;;1.42;;
57577;SDS011;43413;-33.790;150.826;2022-09-09T06:52:06;2.10;;;1.30;;
57577;SDS011;43413;-33.790;150.826;2022-09-09T06:54:34;2.65;;;1.10;;
57577;SDS011;43413;-33.790;150.826;2022-09-09T06:57:03;2.60;;;1.50;;
57577;SDS011;43413;-33.790;150.826;2022-09-09T06:59:32;5.43;;;1.60;;
57577;SDS011;43413;-33.790;150.826;2022-09-09T07:01:59;3.83;;;1.70;;
57577;SDS011;43413;-33.790;150.826;2022-09-09T07:04:26;2.33;;;1.40;;
57577;SDS011;43413;-33.790;150.826;2022-09-09T07:06:54;2.42;;;1.30;;
57577;SDS011;43413;-33.790;150.826;2022-09-09T07:09:21;1.98;;;1.30;;
57577;SDS011;43413;-33.790;150.826;2022-09-09T07:11:49;4.28;;;2.10;;
57577;SDS011;43413;-33.790;150.826;2022-09-09T07:14:20;2.08;;;1.30;;
57577;SDS011;43413;-33.790;150.826;2022-09-09T07:16:47;2.25;;;1.15;;
57577;SDS011;43413;-33.790;150.826;2022-09-09T07:19:14;2.42;;;1.50;;
57577;SDS011;43413;-33.790;150.826;2022-09-09T07:21:42;4.25;;;1.55;;
57577;SDS011;43413;-33.790;150.826;2022-09-09T07:24:09;3.03;;;1.50;;
57577;SDS011;43413;-33.790;150.826;2022-09-09T07:26:37;5.68;;;1.90;;
57577;SDS011;43413;-33.790;150.826;2022-09-09T07:29:04;3.67;;;1.40;;
57577;SDS011;43413;-33.790;150.826;2022-09-09T07:31:33;3.92;;;1.85;;
57577;SDS011;43413;-33.790;150.826;2022-09-09T07:34:02;3.08;;;1.85;;
57577;SDS011;43413;-33.790;150.826;2022-09-09T07:36:30;2.70;;;1.70;;
57577;SDS011;43413;-33.790;150.826;2022-09-09T07:38:59;2.40;;;1.25;;
57577;SDS011;43413;-33.790;150.826;2022-09-09T07:41:28;5.30;;;1.50;;
57577;SDS011;43413;-33.790;150.826;2022-09-09T07:43:56;1.85;;;1.27;;
57577;SDS011;43413;-33.790;150.826;2022-09-09T07:46:24;2.17;;;1.20;;
57577;SDS011;43413;-33.790;150.826;2022-09-09T07:48:52;2.88;;;1.42;;
57577;SDS011;43413;-33.790;150.826;2022-09-09T07:51:21;5.35;;;2.70;;
57577;SDS011;43413;-33.790;150.826;2022-09-09T07:53:51;2.53;;;1.50;;
57577;SDS011;43413;-33.790;150.826;2022-09-09T07:56:19;3.50;;;2.10;;
57577;SDS011;43413;-33.790;150.826;2022-09-09T07:58:50;4.68;;;2.65;;
57577;SDS011;43413;-33.790;150.826;2022-09-09T08:01:18;5.32;;;3.03;;
57577;SDS011;43413;-33.790;150.826;2022-09-09T08:03:46;5.68;;;2.30;;
57577;SDS011;43413;-33.790;150.826;2022-09-09T08:06:14;4.53;;;2.35;;
57577;SDS011;43413;-33.790;150.826;2022-09-09T08:08:41;4.15;;;2.28;;
57577;SDS011;43413;-33.790;150.826;2022-09-09T08:11:10;3.67;;;2.38;;
57577;SDS011;43413;-33.790;150.826;2022-09-09T08:13:38;4.25;;;2.28;;
57577;SDS011;43413;-33.790;150.826;2022-09-09T08:16:09;4.65;;;2.60;;
57577;SDS011;43413;-33.790;150.826;2022-09-09T08:18:37;5.03;;;2.30;;
57577;SDS011;43413;-33.790;150.826;2022-09-09T08:21:05;4.70;;;2.80;;
57577;SDS011;43413;-33.790;150.826;2022-09-09T08:23:33;5.53;;;3.30;;
57577;SDS011;43413;-33.790;150.826;2022-09-09T08:26:13;5.97;;;2.72;;
57577;SDS011;43413;-33.790;150.826;2022-09-09T08:28:41;3.42;;;2.22;;
57577;SDS011;43413;-33.790;150.826;2022-09-09T08:31:09;5.50;;;2.20;;
57577;SDS011;43413;-33.790;150.826;2022-09-09T08:33:37;4.97;;;2.13;;
57577;SDS011;43413;-33.790;150.826;2022-09-09T08:36:05;4.65;;;2.20;;
57577;SDS011;43413;-33.790;150.826;2022-09-09T08:38:34;4.32;;;2.20;;
57577;SDS011;43413;-33.790;150.826;2022-09-09T08:41:29;3.25;;;1.80;;
57577;SDS011;43413;-33.790;150.826;2022-09-09T08:43:50;5.82;;;2.40;;
57577;SDS011;43413;-33.790;150.826;2022-09-09T08:46:29;3.80;;;1.90;;
57577;SDS011;43413;-33.790;150.826;2022-09-09T08:49:16;7.65;;;2.20;;
57577;SDS011;43413;-33.790;150.826;2022-09-09T08:51:46;4.75;;;2.20;;
57577;SDS011;43413;-33.790;150.826;2022-09-09T08:54:15;2.92;;;1.63;;
57577;SDS011;43413;-33.790;150.826;2022-09-09T08:56:42;3.13;;;1.42;;
57577;SDS011;43413;-33.790;150.826;2022-09-09T08:59:11;2.60;;;1.65;;
57577;SDS011;43413;-33.790;150.826;2022-09-09T09:07:03;7.55;;;5.43;;
57577;SDS011;43413;-33.790;150.826;2022-09-09T09:12:21;4.60;;;2.88;;
57577;SDS011;43413;-33.790;150.826;2022-09-09T09:14:49;4.20;;;2.75;;
57577;SDS011;43413;-33.790;150.826;2022-09-09T09:17:20;3.90;;;2.50;;
57577;SDS011;43413;-33.790;150.826;2022-09-09T09:19:47;3.50;;;2.45;;
57577;SDS011;43413;-33.790;150.826;2022-09-09T09:24:56;3.95;;;1.80;;
57577;SDS011;43413;-33.790;150.826;2022-09-09T09:27:33;4.95;;;2.17;;
57577;SDS011;43413;-33.790;150.826;2022-09-09T09:30:05;4.40;;;2.35;;
57577;SDS011;43413;-33.790;150.826;2022-09-09T09:32:33;5.93;;;2.40;;
57577;SDS011;43413;-33.790;150.826;2022-09-09T09:35:02;3.25;;;2.03;;
57577;SDS011;43413;-33.790;150.826;2022-09-09T09:37:33;2.92;;;1.60;;
57577;SDS011;43413;-33.790;150.826;2022-09-09T09:40:08;3.38;;;1.73;;
57577;SDS011;43413;-33.790;150.826;2022-09-09T09:42:35;2.73;;;1.73;;
57577;SDS011;43413;-33.790;150.826;2022-09-09T09:47:59;3.13;;;1.35;;
57577;SDS011;43413;-33.790;150.826;2022-09-09T09:50:27;2.47;;;1.45;;
57577;SDS011;43413;-33.790;150.826;2022-09-09T09:52:55;3.10;;;1.83;;
57577;SDS011;43413;-33.790;150.826;2022-09-09T09:55:23;2.95;;;1.70;;
57577;SDS011;43413;-33.790;150.826;2022-09-09T09:57:51;3.35;;;1.73;;
57577;SDS011;43413;-33.790;150.826;2022-09-09T10:00:21;3.47;;;1.60;;
57577;SDS011;43413;-33.790;150.826;2022-09-09T10:02:48;2.85;;;1.63;;
57577;SDS011;43413;-33.790;150.826;2022-09-09T10:05:20;3.20;;;1.67;;
57577;SDS011;43413;-33.790;150.826;2022-09-09T10:07:59;2.35;;;1.42;;
57577;SDS011;43413;-33.790;150.826;2022-09-09T10:13:28;3.25;;;1.88;;
57577;SDS011;43413;-33.790;150.826;2022-09-09T10:21:20;3.15;;;1.50;;
57577;SDS011;43413;-33.790;150.826;2022-09-09T10:26:44;2.55;;;1.50;;
57577;SDS011;43413;-33.790;150.826;2022-09-09T10:34:52;2.90;;;1.95;;
57577;SDS011;43413;-33.790;150.826;2022-09-09T10:37:30;3.70;;;1.80;;
57577;SDS011;43413;-33.790;150.826;2022-09-09T10:40:08;2.85;;;1.90;;
57577;SDS011;43413;-33.790;150.826;2022-09-09T10:42:43;3.08;;;1.83;;
57577;SDS011;43413;-33.790;150.826;2022-09-09T10:45:29;2.70;;;1.70;;
57577;SDS011;43413;-33.790;150.826;2022-09-09T10:48:04;3.35;;;1.85;;
57577;SDS011;43413;-33.790;150.826;2022-09-09T10:55:59;2.22;;;1.20;;
57577;SDS011;43413;-33.790;150.826;2022-09-09T10:58:30;3.53;;;1.50;;
57577;SDS011;43413;-33.790;150.826;2022-09-09T11:01:01;2.47;;;1.40;;
57577;SDS011;43413;-33.790;150.826;2022-09-09T11:03:34;2.60;;;1.48;;
57577;SDS011;43413;-33.790;150.826;2022-09-09T11:06:05;2.28;;;1.42;;
57577;SDS011;43413;-33.790;150.826;2022-09-09T11:08:35;2.65;;;1.00;;
57577;SDS011;43413;-33.790;150.826;2022-09-09T11:13:49;3.10;;;1.17;;
57577;SDS011;43413;-33.790;150.826;2022-09-09T11:19:40;3.05;;;1.20;;
57577;SDS011;43413;-33.790;150.826;2022-09-09T11:21:49;3.13;;;1.08;;
57577;SDS011;43413;-33.790;150.826;2022-09-09T11:26:52;2.13;;;1.48;;
57577;SDS011;43413;-33.790;150.826;2022-09-09T11:34:36;2.53;;;1.35;;
57577;SDS011;43413;-33.790;150.826;2022-09-09T11:37:17;1.08;;;0.82;;
57577;SDS011;43413;-33.790;150.826;2022-09-09T11:42:24;2.63;;;1.00;;
57577;SDS011;43413;-33.790;150.826;2022-09-09T11:44:51;2.20;;;0.85;;
57577;SDS011;43413;-33.790;150.826;2022-09-09T11:47:30;1.92;;;0.75;;
57577;SDS011;43413;-33.790;150.826;2022-09-09T11:52:50;2.50;;;0.88;;
57577;SDS011;43413;-33.790;150.826;2022-09-09T11:55:26;2.13;;;1.23;;
57577;SDS011;43413;-33.790;150.826;2022-09-09T12:03:06;2.80;;;1.38;;
57577;SDS011;43413;-33.790;150.826;2022-09-09T12:05:41;2.00;;;1.08;;
57577;SDS011;43413;-33.790;150.826;2022-09-09T12:08:09;2.22;;;1.10;;
57577;SDS011;43413;-33.790;150.826;2022-09-09T12:10:40;1.70;;;0.90;;
57577;SDS011;43413;-33.790;150.826;2022-09-09T12:13:18;2.33;;;0.90;;
57577;SDS011;43413;-33.790;150.826;2022-09-09T12:15:52;2.25;;;1.10;;
57577;SDS011;43413;-33.790;150.826;2022-09-09T12:18:23;2.00;;;1.02;;
57577;SDS011;43413;-33.790;150.826;2022-09-09T12:23:33;1.85;;;1.13;;
57577;SDS011;43413;-33.790;150.826;2022-09-09T12:26:06;2.70;;;1.10;;
57577;SDS011;43413;-33.790;150.826;2022-09-09T12:28:49;1.88;;;1.08;;
57577;SDS011;43413;-33.790;150.826;2022-09-09T12:36:46;1.50;;;0.90;;
57577;SDS011;43413;-33.790;150.826;2022-09-09T12:39:21;2.25;;;0.90;;
57577;SDS011;43413;-33.790;150.826;2022-09-09T12:41:53;1.75;;;1.00;;
57577;SDS011;43413;-33.790;150.826;2022-09-09T12:44:22;2.58;;;1.00;;
57577;SDS011;43413;-33.790;150.826;2022-09-09T12:46:50;1.27;;;0.80;;
57577;SDS011;43413;-33.790;150.826;2022-09-09T12:49:28;2.38;;;0.82;;
57577;SDS011;43413;-33.790;150.826;2022-09-09T12:52:13;2.05;;;0.90;;
57577;SDS011;43413;-33.790;150.826;2022-09-09T12:54:43;2.35;;;1.00;;
57577;SDS011;43413;-33.790;150.826;2022-09-09T12:57:12;3.20;;;0.88;;
57577;SDS011;43413;-33.790;150.826;2022-09-09T12:59:40;1.63;;;0.77;;
57577;SDS011;43413;-33.790;150.826;2022-09-09T13:02:24;1.83;;;0.65;;
57577;SDS011;43413;-33.790;150.826;2022-09-09T13:04:53;1.95;;;0.73;;
57577;SDS011;43413;-33.790;150.826;2022-09-09T13:07:21;1.77;;;0.63;;
57577;SDS011;43413;-33.790;150.826;2022-09-09T13:09:50;3.88;;;0.88;;
57577;SDS011;43413;-33.790;150.826;2022-09-09T13:12:21;1.40;;;0.90;;
57577;SDS011;43413;-33.790;150.826;2022-09-09T13:14:49;1.83;;;0.75;;
57577;SDS011;43413;-33.790;150.826;2022-09-09T13:17:19;2.42;;;0.90;;
57577;SDS011;43413;-33.790;150.826;2022-09-09T13:19:47;1.40;;;0.93;;
57577;SDS011;43413;-33.790;150.826;2022-09-09T13:22:37;2.53;;;1.42;;
57577;SDS011;43413;-33.790;150.826;2022-09-09T13:25:17;2.97;;;1.52;;
57577;SDS011;43413;-33.790;150.826;2022-09-09T13:28:18;3.42;;;1.30;;
57577;SDS011;43413;-33.790;150.826;2022-09-09T13:30:38;3.47;;;1.52;;
57577;SDS011;43413;-33.790;150.826;2022-09-09T13:38:15;2.28;;;1.40;;
57577;SDS011;43413;-33.790;150.826;2022-09-09T13:40:58;3.13;;;1.40;;
57577;SDS011;43413;-33.790;150.826;2022-09-09T13:43:50;2.95;;;1.30;;
57577;SDS011;43413;-33.790;150.826;2022-09-09T13:48:56;2.33;;;1.40;;
57577;SDS011;43413;-33.790;150.826;2022-09-09T13:54:11;2.53;;;1.42;;
57577;SDS011;43413;-33.790;150.826;2022-09-09T13:56:38;4.88;;;2.03;;
57577;SDS011;43413;-33.790;150.826;2022-09-09T13:59:09;3.80;;;1.65;;
57577;SDS011;43413;-33.790;150.826;2022-09-09T14:01:37;4.57;;;1.40;;
57577;SDS011;43413;-33.790;150.826;2022-09-09T14:04:04;7.18;;;1.70;;
57577;SDS011;43413;-33.790;150.826;2022-09-09T14:06:32;3.00;;;1.42;;
57577;SDS011;43413;-33.790;150.826;2022-09-09T14:09:01;2.45;;;1.30;;
57577;SDS011;43413;-33.790;150.826;2022-09-09T14:11:28;2.20;;;1.20;;
57577;SDS011;43413;-33.790;150.826;2022-09-09T14:13:55;1.88;;;1.10;;
57577;SDS011;43413;-33.790;150.826;2022-09-09T14:16:23;2.33;;;1.17;;
57577;SDS011;43413;-33.790;150.826;2022-09-09T14:18:53;2.22;;;1.17;;
57577;SDS011;43413;-33.790;150.826;2022-09-09T14:21:25;1.92;;;1.08;;
57577;SDS011;43413;-33.790;150.826;2022-09-09T14:23:52;2.78;;;1.00;;
57577;SDS011;43413;-33.790;150.826;2022-09-09T14:26:22;2.28;;;0.98;;
57577;SDS011;43413;-33.790;150.826;2022-09-09T14:28:50;1.95;;;0.93;;
57577;SDS011;43413;-33.790;150.826;2022-09-09T14:31:17;1.10;;;0.70;;
57577;SDS011;43413;-33.790;150.826;2022-09-09T14:33:44;1.85;;;0.75;;
57577;SDS011;43413;-33.790;150.826;2022-09-09T14:36:12;1.63;;;0.75;;
57577;SDS011;43413;-33.790;150.826;2022-09-09T14:38:40;1.58;;;0.85;;
57577;SDS011;43413;-33.790;150.826;2022-09-09T14:41:15;1.20;;;0.80;;
57577;SDS011;43413;-33.790;150.826;2022-09-09T14:43:43;1.20;;;0.70;;
57577;SDS011;43413;-33.790;150.826;2022-09-09T14:46:14;1.52;;;0.90;;
57577;SDS011;43413;-33.790;150.826;2022-09-09T14:48:42;1.73;;;0.60;;
57577;SDS011;43413;-33.790;150.826;2022-09-09T14:51:15;1.45;;;0.50;;
57577;SDS011;43413;-33.790;150.826;2022-09-09T14:53:43;0.68;;;0.38;;
57577;SDS011;43413;-33.790;150.826;2022-09-09T14:56:15;0.35;;;0.30;;
57577;SDS011;43413;-33.790;150.826;2022-09-09T14:58:42;0.45;;;0.30;;
57577;SDS011;43413;-33.790;150.826;2022-09-09T15:01:14;0.40;;;0.30;;
57577;SDS011;43413;-33.790;150.826;2022-09-09T15:03:42;0.50;;;0.30;;
57577;SDS011;43413;-33.790;150.826;2022-09-09T15:06:12;1.17;;;0.40;;
57577;SDS011;43413;-33.790;150.826;2022-09-09T15:08:41;0.28;;;0.17;;
57577;SDS011;43413;-33.790;150.826;2022-09-09T15:11:08;0.80;;;0.40;;
57577;SDS011;43413;-33.790;150.826;2022-09-09T15:13:36;1.10;;;0.65;;
57577;SDS011;43413;-33.790;150.826;2022-09-09T15:16:08;1.92;;;0.40;;
57577;SDS011;43413;-33.790;150.826;2022-09-09T15:18:35;1.05;;;0.40;;
57577;SDS011;43413;-33.790;150.826;2022-09-09T15:21:05;0.40;;;0.30;;
57577;SDS011;43413;-33.790;150.826;2022-09-09T15:23:34;1.00;;;0.40;;
57577;SDS011;43413;-33.790;150.826;2022-09-09T15:26:02;0.70;;;0.50;;
57577;SDS011;43413;-33.790;150.826;2022-09-09T15:28:30;0.40;;;0.30;;
57577;SDS011;43413;-33.790;150.826;2022-09-09T15:30:58;1.48;;;0.30;;
57577;SDS011;43413;-33.790;150.826;2022-09-09T15:33:25;1.23;;;0.30;;
57577;SDS011;43413;-33.790;150.826;2022-09-09T15:35:54;0.40;;;0.30;;
57577;SDS011;43413;-33.790;150.826;2022-09-09T15:38:21;0.93;;;0.20;;
57577;SDS011;43413;-33.790;150.826;2022-09-09T15:40:53;0.57;;;0.32;;
57577;SDS011;43413;-33.790;150.826;2022-09-09T15:43:21;0.77;;;0.30;;
57577;SDS011;43413;-33.790;150.826;2022-09-09T15:45:52;0.75;;;0.40;;
57577;SDS011;43413;-33.790;150.826;2022-09-09T15:48:23;0.82;;;0.40;;
57577;SDS011;43413;-33.790;150.826;2022-09-09T15:51:02;1.02;;;0.40;;
57577;SDS011;43413;-33.790;150.826;2022-09-09T15:53:30;0.82;;;0.30;;
57577;SDS011;43413;-33.790;150.826;2022-09-09T15:56:00;0.35;;;0.20;;
57577;SDS011;43413;-33.790;150.826;2022-09-09T15:58:30;1.20;;;0.30;;
57577;SDS011;43413;-33.790;150.826;2022-09-09T16:03:37;0.82;;;0.40;;
57577;SDS011;43413;-33.790;150.826;2022-09-09T16:06:05;1.65;;;0.20;;
57577;SDS011;43413;-33.790;150.826;2022-09-09T16:08:36;1.85;;;0.32;;
57577;SDS011;43413;-33.790;150.826;2022-09-09T16:11:10;1.02;;;0.30;;
57577;SDS011;43413;-33.790;150.826;2022-09-09T16:13:40;0.88;;;0.30;;
57577;SDS011;43413;-33.790;150.826;2022-09-09T16:16:09;1.60;;;0.30;;
57577;SDS011;43413;-33.790;150.826;2022-09-09T16:18:38;0.68;;;0.30;;
57577;SDS011;43413;-33.790;150.826;2022-09-09T16:21:06;0.93;;;0.20;;
57577;SDS011;43413;-33.790;150.826;2022-09-09T16:23:36;2.00;;;0.30;;
57577;SDS011;43413;-33.790;150.826;2022-09-09T16:26:04;1.00;;;0.60;;
57577;SDS011;43413;-33.790;150.826;2022-09-09T16:28:31;1.13;;;0.40;;
57577;SDS011;43413;-33.790;150.826;2022-09-09T16:30:59;0.60;;;0.30;;
57577;SDS011;43413;-33.790;150.826;2022-09-09T16:33:30;0.77;;;0.40;;
57577;SDS011;43413;-33.790;150.826;2022-09-09T16:35:57;0.50;;;0.40;;
57577;SDS011;43413;-33.790;150.826;2022-09-09T16:38:25;1.33;;;0.40;;
57577;SDS011;43413;-33.790;150.826;2022-09-09T16:40:58;0.73;;;0.30;;
57577;SDS011;43413;-33.790;150.826;2022-09-09T16:43:25;0.15;;;0.10;;
57577;SDS011;43413;-33.790;150.826;2022-09-09T16:45:52;1.45;;;0.43;;
57577;SDS011;43413;-33.790;150.826;2022-09-09T16:48:19;0.95;;;0.40;;
57577;SDS011;43413;-33.790;150.826;2022-09-09T16:50:47;0.70;;;0.20;;
57577;SDS011;43413;-33.790;150.826;2022-09-09T16:53:14;0.35;;;0.20;;
57577;SDS011;43413;-33.790;150.826;2022-09-09T16:55:41;0.60;;;0.20;;
57577;SDS011;43413;-33.790;150.826;2022-09-09T16:58:10;1.60;;;0.35;;
57577;SDS011;43413;-33.790;150.826;2022-09-09T17:00:37;0.52;;;0.20;;
57577;SDS011;43413;-33.790;150.826;2022-09-09T17:03:04;1.63;;;0.35;;
57577;SDS011;43413;-33.790;150.826;2022-09-09T17:05:31;0.93;;;0.28;;
57577;SDS011;43413;-33.790;150.826;2022-09-09T17:07:58;0.25;;;0.20;;
57577;SDS011;43413;-33.790;150.826;2022-09-09T17:10:25;1.65;;;0.25;;
57577;SDS011;43413;-33.790;150.826;2022-09-09T17:12:53;0.85;;;0.28;;
57577;SDS011;43413;-33.790;150.826;2022-09-09T17:15:20;1.80;;;0.40;;